sensor_id;sensor_type;location;lat;lon;timestamp;temperature;humidity
57857;DHT22;43683;48.650;9.290;2022-07-06T00:01:17;14.20;71.00
57857;DHT22;43683;48.650;9.290;2022-07-06T00:03:42;13.90;71.70
57857;DHT22;43683;48.650;9.290;2022-07-06T00:06:08;13.70;72.40
57857;DHT22;43683;48.650;9.290;2022-07-06T00:08:33;13.50;72.80
57857;DHT22;43683;48.650;9.290;2022-07-06T00:10:59;13.40;73.30
57857;DHT22;43683;48.650;9.290;2022-07-06T00:13:25;13.30;73.60
57857;DHT22;43683;48.650;9.290;2022-07-06T00:15:51;13.10;74.00
57857;DHT22;43683;48.650;9.290;2022-07-06T00:18:17;13.10;74.20
57857;DHT22;43683;48.650;9.290;2022-07-06T00:20:43;13.00;74.30
57857;DHT22;43683;48.650;9.290;2022-07-06T00:23:08;13.00;74.60
57857;DHT22;43683;48.650;9.290;2022-07-06T00:25:34;13.00;74.80
57857;DHT22;43683;48.650;9.290;2022-07-06T00:28:00;12.90;75.00
57857;DHT22;43683;48.650;9.290;2022-07-06T00:30:26;12.80;75.10
57857;DHT22;43683;48.650;9.290;2022-07-06T00:32:51;12.80;75.30
57857;DHT22;43683;48.650;9.290;2022-07-06T00:35:17;12.90;75.30
57857;DHT22;43683;48.650;9.290;2022-07-06T00:37:42;12.80;75.30
57857;DHT22;43683;48.650;9.290;2022-07-06T00:40:08;12.80;75.30
57857;DHT22;43683;48.650;9.290;2022-07-06T00:42:41;12.80;75.30
57857;DHT22;43683;48.650;9.290;2022-07-06T00:45:07;12.80;75.60
57857;DHT22;43683;48.650;9.290;2022-07-06T00:47:33;12.80;75.30
57857;DHT22;43683;48.650;9.290;2022-07-06T00:49:59;12.70;75.40
57857;DHT22;43683;48.650;9.290;2022-07-06T00:52:55;12.70;75.80
57857;DHT22;43683;48.650;9.290;2022-07-06T00:55:24;12.60;76.40
57857;DHT22;43683;48.650;9.290;2022-07-06T00:57:50;12.50;76.60
57857;DHT22;43683;48.650;9.290;2022-07-06T01:00:19;12.50;76.50
57857;DHT22;43683;48.650;9.290;2022-07-06T01:02:45;12.40;76.70
57857;DHT22;43683;48.650;9.290;2022-07-06T01:05:12;12.40;76.70
57857;DHT22;43683;48.650;9.290;2022-07-06T01:07:41;12.40;76.90
57857;DHT22;43683;48.650;9.290;2022-07-06T01:10:08;12.40;77.00
57857;DHT22;43683;48.650;9.290;2022-07-06T01:12:35;12.30;77.00
57857;DHT22;43683;48.650;9.290;2022-07-06T01:15:06;12.30;77.20
57857;DHT22;43683;48.650;9.290;2022-07-06T01:17:33;12.20;77.40
57857;DHT22;43683;48.650;9.290;2022-07-06T01:20:07;12.20;77.50
57857;DHT22;43683;48.650;9.290;2022-07-06T01:22:32;12.20;77.60
57857;DHT22;43683;48.650;9.290;2022-07-06T01:24:58;12.20;77.60
57857;DHT22;43683;48.650;9.290;2022-07-06T01:27:23;12.20;77.80
57857;DHT22;43683;48.650;9.290;2022-07-06T01:29:49;12.20;77.90
57857;DHT22;43683;48.650;9.290;2022-07-06T01:32:15;12.10;78.00
57857;DHT22;43683;48.650;9.290;2022-07-06T01:34:40;12.10;78.30
57857;DHT22;43683;48.650;9.290;2022-07-06T01:37:06;12.00;78.50
57857;DHT22;43683;48.650;9.290;2022-07-06T01:39:31;11.90;78.80
57857;DHT22;43683;48.650;9.290;2022-07-06T01:41:57;11.90;79.00
57857;DHT22;43683;48.650;9.290;2022-07-06T01:44:22;11.90;79.20
57857;DHT22;43683;48.650;9.290;2022-07-06T01:46:48;11.80;79.30
57857;DHT22;43683;48.650;9.290;2022-07-06T01:49:13;11.80;79.40
57857;DHT22;43683;48.650;9.290;2022-07-06T01:51:39;11.80;79.40
57857;DHT22;43683;48.650;9.290;2022-07-06T01:54:05;11.80;79.60
57857;DHT22;43683;48.650;9.290;2022-07-06T01:56:30;11.80;79.80
57857;DHT22;43683;48.650;9.290;2022-07-06T01:58:56;11.70;79.90
57857;DHT22;43683;48.650;9.290;2022-07-06T02:01:22;11.70;80.70
57857;DHT22;43683;48.650;9.290;2022-07-06T02:03:48;11.70;80.20
57857;DHT22;43683;48.650;9.290;2022-07-06T02:06:14;11.70;80.40
57857;DHT22;43683;48.650;9.290;2022-07-06T02:08:41;11.60;80.60
57857;DHT22;43683;48.650;9.290;2022-07-06T02:11:07;11.60;80.80
57857;DHT22;43683;48.650;9.290;2022-07-06T02:13:34;11.60;80.80
57857;DHT22;43683;48.650;9.290;2022-07-06T02:16:00;11.50;80.90
57857;DHT22;43683;48.650;9.290;2022-07-06T02:18:26;11.50;81.00
57857;DHT22;43683;48.650;9.290;2022-07-06T02:20:51;11.50;81.10
57857;DHT22;43683;48.650;9.290;2022-07-06T02:23:17;11.50;81.30
57857;DHT22;43683;48.650;9.290;2022-07-06T02:25:43;11.50;81.30
57857;DHT22;43683;48.650;9.290;2022-07-06T02:28:08;11.50;81.30
57857;DHT22;43683;48.650;9.290;2022-07-06T02:30:34;11.50;81.20
57857;DHT22;43683;48.650;9.290;2022-07-06T02:32:59;11.50;81.30
57857;DHT22;43683;48.650;9.290;2022-07-06T02:35:25;11.50;81.60
57857;DHT22;43683;48.650;9.290;2022-07-06T02:37:50;11.40;81.90
57857;DHT22;43683;48.650;9.290;2022-07-06T02:40:16;11.30;82.10
57857;DHT22;43683;48.650;9.290;2022-07-06T02:42:41;11.20;82.40
57857;DHT22;43683;48.650;9.290;2022-07-06T02:45:07;11.20;82.80
57857;DHT22;43683;48.650;9.290;2022-07-06T02:47:33;11.10;83.00
57857;DHT22;43683;48.650;9.290;2022-07-06T02:49:59;11.10;83.00
57857;DHT22;43683;48.650;9.290;2022-07-06T02:52:24;11.20;83.10
57857;DHT22;43683;48.650;9.290;2022-07-06T02:54:50;11.20;83.10
57857;DHT22;43683;48.650;9.290;2022-07-06T02:57:16;11.20;83.00
57857;DHT22;43683;48.650;9.290;2022-07-06T02:59:42;11.20;83.20
57857;DHT22;43683;48.650;9.290;2022-07-06T03:02:08;11.20;83.30
57857;DHT22;43683;48.650;9.290;2022-07-06T03:04:34;11.20;83.40
57857;DHT22;43683;48.650;9.290;2022-07-06T03:06:59;11.10;83.50
57857;DHT22;43683;48.650;9.290;2022-07-06T03:09:25;11.00;83.60
57857;DHT22;43683;48.650;9.290;2022-07-06T03:11:51;11.00;83.90
57857;DHT22;43683;48.650;9.290;2022-07-06T03:14:17;10.90;84.10
57857;DHT22;43683;48.650;9.290;2022-07-06T03:16:42;10.90;84.30
57857;DHT22;43683;48.650;9.290;2022-07-06T03:19:08;11.00;84.30
57857;DHT22;43683;48.650;9.290;2022-07-06T03:21:33;11.00;84.20
57857;DHT22;43683;48.650;9.290;2022-07-06T03:23:59;11.00;84.00
57857;DHT22;43683;48.650;9.290;2022-07-06T03:26:24;11.10;84.00
57857;DHT22;43683;48.650;9.290;2022-07-06T03:28:50;11.10;84.00
57857;DHT22;43683;48.650;9.290;2022-07-06T03:31:16;11.00;84.10
57857;DHT22;43683;48.650;9.290;2022-07-06T03:33:41;10.90;84.30
57857;DHT22;43683;48.650;9.290;2022-07-06T03:36:07;10.90;84.50
57857;DHT22;43683;48.650;9.290;2022-07-06T03:38:34;10.90;84.60
57857;DHT22;43683;48.650;9.290;2022-07-06T03:40:59;10.90;84.60
57857;DHT22;43683;48.650;9.290;2022-07-06T03:43:25;11.00;84.50
57857;DHT22;43683;48.650;9.290;2022-07-06T03:45:50;11.10;84.30
57857;DHT22;43683;48.650;9.290;2022-07-06T03:48:16;11.20;84.00
57857;DHT22;43683;48.650;9.290;2022-07-06T03:50:41;11.30;83.80
57857;DHT22;43683;48.650;9.290;2022-07-06T03:53:07;11.40;83.60
57857;DHT22;43683;48.650;9.290;2022-07-06T03:55:33;11.50;84.30
57857;DHT22;43683;48.650;9.290;2022-07-06T03:57:58;11.60;84.10
57857;DHT22;43683;48.650;9.290;2022-07-06T04:00:24;11.60;83.30
57857;DHT22;43683;48.650;9.290;2022-07-06T04:02:49;11.70;83.30
57857;DHT22;43683;48.650;9.290;2022-07-06T04:05:15;11.70;83.30
57857;DHT22;43683;48.650;9.290;2022-07-06T04:07:42;11.70;83.20
57857;DHT22;43683;48.650;9.290;2022-07-06T04:10:08;11.80;82.70
57857;DHT22;43683;48.650;9.290;2022-07-06T04:12:43;11.80;82.60
57857;DHT22;43683;48.650;9.290;2022-07-06T04:15:09;11.80;82.90
57857;DHT22;43683;48.650;9.290;2022-07-06T04:17:35;11.80;82.80
57857;DHT22;43683;48.650;9.290;2022-07-06T04:20:23;11.90;82.80
57857;DHT22;43683;48.650;9.290;2022-07-06T04:22:50;11.90;83.00
57857;DHT22;43683;48.650;9.290;2022-07-06T04:25:15;11.90;83.10
57857;DHT22;43683;48.650;9.290;2022-07-06T04:27:41;12.00;83.20
57857;DHT22;43683;48.650;9.290;2022-07-06T04:30:08;12.00;83.20
57857;DHT22;43683;48.650;9.290;2022-07-06T04:32:34;12.10;83.40
57857;DHT22;43683;48.650;9.290;2022-07-06T04:35:01;12.10;83.30
57857;DHT22;43683;48.650;9.290;2022-07-06T04:37:27;12.20;83.10
57857;DHT22;43683;48.650;9.290;2022-07-06T04:39:52;12.20;83.00
57857;DHT22;43683;48.650;9.290;2022-07-06T04:42:18;12.30;82.90
57857;DHT22;43683;48.650;9.290;2022-07-06T04:44:44;12.30;82.70
57857;DHT22;43683;48.650;9.290;2022-07-06T04:47:11;12.40;82.60
57857;DHT22;43683;48.650;9.290;2022-07-06T04:49:36;12.40;82.50
57857;DHT22;43683;48.650;9.290;2022-07-06T04:52:02;12.40;82.50
57857;DHT22;43683;48.650;9.290;2022-07-06T04:54:28;12.50;83.10
57857;DHT22;43683;48.650;9.290;2022-07-06T04:56:53;12.60;82.20
57857;DHT22;43683;48.650;9.290;2022-07-06T04:59:19;12.70;82.00
57857;DHT22;43683;48.650;9.290;2022-07-06T05:01:44;12.80;82.00
57857;DHT22;43683;48.650;9.290;2022-07-06T05:04:10;12.80;81.90
57857;DHT22;43683;48.650;9.290;2022-07-06T05:06:35;12.90;81.80
57857;DHT22;43683;48.650;9.290;2022-07-06T05:09:01;13.00;81.70
57857;DHT22;43683;48.650;9.290;2022-07-06T05:11:27;13.10;81.50
57857;DHT22;43683;48.650;9.290;2022-07-06T05:13:53;13.30;81.40
57857;DHT22;43683;48.650;9.290;2022-07-06T05:16:19;13.40;81.20
57857;DHT22;43683;48.650;9.290;2022-07-06T05:18:45;13.50;81.10
57857;DHT22;43683;48.650;9.290;2022-07-06T05:21:11;13.60;80.90
57857;DHT22;43683;48.650;9.290;2022-07-06T05:23:36;13.80;80.70
57857;DHT22;43683;48.650;9.290;2022-07-06T05:26:02;13.90;80.40
57857;DHT22;43683;48.650;9.290;2022-07-06T05:28:27;14.10;80.90
57857;DHT22;43683;48.650;9.290;2022-07-06T05:30:53;14.20;79.90
57857;DHT22;43683;48.650;9.290;2022-07-06T05:33:18;14.30;79.50
57857;DHT22;43683;48.650;9.290;2022-07-06T05:35:44;14.50;79.10
57857;DHT22;43683;48.650;9.290;2022-07-06T05:38:09;14.50;78.70
57857;DHT22;43683;48.650;9.290;2022-07-06T05:40:35;14.70;78.60
57857;DHT22;43683;48.650;9.290;2022-07-06T05:43:01;14.80;78.40
57857;DHT22;43683;48.650;9.290;2022-07-06T05:45:27;15.00;78.30
57857;DHT22;43683;48.650;9.290;2022-07-06T05:47:52;15.40;77.90
57857;DHT22;43683;48.650;9.290;2022-07-06T05:50:36;16.60;75.20
57857;DHT22;43683;48.650;9.290;2022-07-06T05:53:04;17.80;72.10
57857;DHT22;43683;48.650;9.290;2022-07-06T05:55:30;18.60;70.10
57857;DHT22;43683;48.650;9.290;2022-07-06T05:57:56;19.20;68.30
57857;DHT22;43683;48.650;9.290;2022-07-06T06:00:23;19.60;67.10
57857;DHT22;43683;48.650;9.290;2022-07-06T06:02:49;20.00;65.90
57857;DHT22;43683;48.650;9.290;2022-07-06T06:05:15;20.50;65.30
57857;DHT22;43683;48.650;9.290;2022-07-06T06:07:41;20.70;64.60
57857;DHT22;43683;48.650;9.290;2022-07-06T06:10:10;21.10;63.60
57857;DHT22;43683;48.650;9.290;2022-07-06T06:12:35;21.20;62.60
57857;DHT22;43683;48.650;9.290;2022-07-06T06:15:02;21.40;62.20
57857;DHT22;43683;48.650;9.290;2022-07-06T06:17:27;21.50;61.60
57857;DHT22;43683;48.650;9.290;2022-07-06T06:19:53;21.50;61.40
57857;DHT22;43683;48.650;9.290;2022-07-06T06:22:19;21.40;61.00
57857;DHT22;43683;48.650;9.290;2022-07-06T06:24:45;21.40;60.70
57857;DHT22;43683;48.650;9.290;2022-07-06T06:27:11;21.10;60.70
57857;DHT22;43683;48.650;9.290;2022-07-06T06:29:36;21.10;60.30
57857;DHT22;43683;48.650;9.290;2022-07-06T06:32:02;21.30;59.70
57857;DHT22;43683;48.650;9.290;2022-07-06T06:34:28;21.60;59.00
57857;DHT22;43683;48.650;9.290;2022-07-06T06:36:53;21.70;58.30
57857;DHT22;43683;48.650;9.290;2022-07-06T06:39:19;21.70;58.20
57857;DHT22;43683;48.650;9.290;2022-07-06T06:41:44;21.50;58.00
57857;DHT22;43683;48.650;9.290;2022-07-06T06:44:10;21.50;57.70
57857;DHT22;43683;48.650;9.290;2022-07-06T06:46:35;21.60;58.20
57857;DHT22;43683;48.650;9.290;2022-07-06T06:49:01;21.60;57.10
57857;DHT22;43683;48.650;9.290;2022-07-06T06:51:26;21.70;56.50
57857;DHT22;43683;48.650;9.290;2022-07-06T06:53:52;21.80;56.20
57857;DHT22;43683;48.650;9.290;2022-07-06T06:56:17;21.70;56.00
57857;DHT22;43683;48.650;9.290;2022-07-06T06:58:43;21.70;55.70
57857;DHT22;43683;48.650;9.290;2022-07-06T07:01:09;21.80;55.20
57857;DHT22;43683;48.650;9.290;2022-07-06T07:03:35;21.80;55.30
57857;DHT22;43683;48.650;9.290;2022-07-06T07:06:00;21.80;54.90
57857;DHT22;43683;48.650;9.290;2022-07-06T07:08:26;21.80;54.90
57857;DHT22;43683;48.650;9.290;2022-07-06T07:10:51;21.60;55.10
57857;DHT22;43683;48.650;9.290;2022-07-06T07:13:17;21.50;55.30
57857;DHT22;43683;48.650;9.290;2022-07-06T07:15:43;21.20;55.50
57857;DHT22;43683;48.650;9.290;2022-07-06T07:18:08;21.00;56.30
57857;DHT22;43683;48.650;9.290;2022-07-06T07:20:34;20.80;56.30
57857;DHT22;43683;48.650;9.290;2022-07-06T07:23:00;20.70;56.60
57857;DHT22;43683;48.650;9.290;2022-07-06T07:25:26;20.80;57.10
57857;DHT22;43683;48.650;9.290;2022-07-06T07:27:53;20.80;56.80
57857;DHT22;43683;48.650;9.290;2022-07-06T07:30:18;20.80;56.70
57857;DHT22;43683;48.650;9.290;2022-07-06T07:32:44;20.90;56.50
57857;DHT22;43683;48.650;9.290;2022-07-06T07:35:10;20.90;56.40
57857;DHT22;43683;48.650;9.290;2022-07-06T07:37:35;20.80;56.60
57857;DHT22;43683;48.650;9.290;2022-07-06T07:40:01;20.80;56.90
57857;DHT22;43683;48.650;9.290;2022-07-06T07:42:27;20.90;57.00
57857;DHT22;43683;48.650;9.290;2022-07-06T07:44:53;21.00;56.70
57857;DHT22;43683;48.650;9.290;2022-07-06T07:47:19;21.20;56.40
57857;DHT22;43683;48.650;9.290;2022-07-06T07:49:44;21.40;56.40
57857;DHT22;43683;48.650;9.290;2022-07-06T07:52:10;21.50;56.30
57857;DHT22;43683;48.650;9.290;2022-07-06T07:54:36;21.40;55.80
57857;DHT22;43683;48.650;9.290;2022-07-06T07:57:02;21.50;55.60
57857;DHT22;43683;48.650;9.290;2022-07-06T07:59:28;21.60;55.50
57857;DHT22;43683;48.650;9.290;2022-07-06T08:01:53;21.60;55.10
57857;DHT22;43683;48.650;9.290;2022-07-06T08:04:19;21.70;55.10
57857;DHT22;43683;48.650;9.290;2022-07-06T08:06:45;21.70;54.90
57857;DHT22;43683;48.650;9.290;2022-07-06T08:09:11;21.80;54.90
57857;DHT22;43683;48.650;9.290;2022-07-06T08:11:36;22.00;54.50
57857;DHT22;43683;48.650;9.290;2022-07-06T08:14:03;22.20;54.10
57857;DHT22;43683;48.650;9.290;2022-07-06T08:16:29;22.20;54.40
57857;DHT22;43683;48.650;9.290;2022-07-06T08:18:55;22.30;54.30
57857;DHT22;43683;48.650;9.290;2022-07-06T08:21:20;22.40;54.20
57857;DHT22;43683;48.650;9.290;2022-07-06T08:23:46;22.50;54.00
57857;DHT22;43683;48.650;9.290;2022-07-06T08:26:11;22.50;53.70
57857;DHT22;43683;48.650;9.290;2022-07-06T08:28:39;22.70;53.30
57857;DHT22;43683;48.650;9.290;2022-07-06T08:31:04;22.70;53.60
57857;DHT22;43683;48.650;9.290;2022-07-06T08:33:30;22.80;53.80
57857;DHT22;43683;48.650;9.290;2022-07-06T08:35:55;23.00;54.00
57857;DHT22;43683;48.650;9.290;2022-07-06T08:38:21;23.00;53.50
57857;DHT22;43683;48.650;9.290;2022-07-06T08:40:49;23.20;53.20
57857;DHT22;43683;48.650;9.290;2022-07-06T08:43:15;23.10;52.90
57857;DHT22;43683;48.650;9.290;2022-07-06T08:45:42;23.00;52.90
57857;DHT22;43683;48.650;9.290;2022-07-06T08:48:10;23.10;52.90
57857;DHT22;43683;48.650;9.290;2022-07-06T08:50:36;23.20;52.70
57857;DHT22;43683;48.650;9.290;2022-07-06T08:53:02;23.30;53.10
57857;DHT22;43683;48.650;9.290;2022-07-06T08:55:28;23.40;53.00
57857;DHT22;43683;48.650;9.290;2022-07-06T08:57:58;23.70;53.00
57857;DHT22;43683;48.650;9.290;2022-07-06T09:00:24;23.90;52.30
57857;DHT22;43683;48.650;9.290;2022-07-06T09:02:50;24.00;51.80
57857;DHT22;43683;48.650;9.290;2022-07-06T09:05:17;24.00;51.30
57857;DHT22;43683;48.650;9.290;2022-07-06T09:07:45;23.80;51.50
57857;DHT22;43683;48.650;9.290;2022-07-06T09:10:14;23.80;51.30
57857;DHT22;43683;48.650;9.290;2022-07-06T09:12:42;23.90;51.40
57857;DHT22;43683;48.650;9.290;2022-07-06T09:15:07;24.20;50.70
57857;DHT22;43683;48.650;9.290;2022-07-06T09:17:37;24.30;50.00
57857;DHT22;43683;48.650;9.290;2022-07-06T09:20:13;24.40;49.80
57857;DHT22;43683;48.650;9.290;2022-07-06T09:22:39;24.60;49.50
57857;DHT22;43683;48.650;9.290;2022-07-06T09:25:06;24.70;49.50
57857;DHT22;43683;48.650;9.290;2022-07-06T09:27:32;24.80;49.20
57857;DHT22;43683;48.650;9.290;2022-07-06T09:30:02;24.80;49.00
57857;DHT22;43683;48.650;9.290;2022-07-06T09:32:27;24.80;48.90
57857;DHT22;43683;48.650;9.290;2022-07-06T09:34:53;24.90;48.60
57857;DHT22;43683;48.650;9.290;2022-07-06T09:37:22;25.00;47.80
57857;DHT22;43683;48.650;9.290;2022-07-06T09:39:49;25.20;47.60
57857;DHT22;43683;48.650;9.290;2022-07-06T09:42:14;25.50;47.40
57857;DHT22;43683;48.650;9.290;2022-07-06T09:44:41;25.90;46.70
57857;DHT22;43683;48.650;9.290;2022-07-06T09:47:11;26.00;46.40
57857;DHT22;43683;48.650;9.290;2022-07-06T09:49:38;25.80;46.20
57857;DHT22;43683;48.650;9.290;2022-07-06T09:52:05;25.10;46.50
57857;DHT22;43683;48.650;9.290;2022-07-06T09:54:31;24.90;47.60
57857;DHT22;43683;48.650;9.290;2022-07-06T09:56:57;25.30;46.80
57857;DHT22;43683;48.650;9.290;2022-07-06T09:59:28;25.60;45.40
57857;DHT22;43683;48.650;9.290;2022-07-06T10:01:56;26.10;45.30
57857;DHT22;43683;48.650;9.290;2022-07-06T10:04:23;26.60;44.90
57857;DHT22;43683;48.650;9.290;2022-07-06T10:06:50;27.00;44.10
57857;DHT22;43683;48.650;9.290;2022-07-06T10:09:18;27.00;43.60
57857;DHT22;43683;48.650;9.290;2022-07-06T10:11:50;26.80;43.60
57857;DHT22;43683;48.650;9.290;2022-07-06T10:14:22;27.20;42.90
57857;DHT22;43683;48.650;9.290;2022-07-06T10:16:48;27.40;42.50
57857;DHT22;43683;48.650;9.290;2022-07-06T10:19:15;27.60;42.10
57857;DHT22;43683;48.650;9.290;2022-07-06T10:21:41;27.10;42.30
57857;DHT22;43683;48.650;9.290;2022-07-06T10:24:08;27.10;42.30
57857;DHT22;43683;48.650;9.290;2022-07-06T10:26:35;27.30;43.10
57857;DHT22;43683;48.650;9.290;2022-07-06T10:29:02;27.80;42.80
57857;DHT22;43683;48.650;9.290;2022-07-06T10:31:31;27.60;42.30
57857;DHT22;43683;48.650;9.290;2022-07-06T10:34:02;27.10;42.60
57857;DHT22;43683;48.650;9.290;2022-07-06T10:36:29;26.50;43.00
57857;DHT22;43683;48.650;9.290;2022-07-06T10:38:55;26.80;43.10
57857;DHT22;43683;48.650;9.290;2022-07-06T10:41:31;27.40;42.30
57857;DHT22;43683;48.650;9.290;2022-07-06T10:43:58;27.30;41.90
57857;DHT22;43683;48.650;9.290;2022-07-06T10:46:39;27.30;41.70
57857;DHT22;43683;48.650;9.290;2022-07-06T10:49:15;26.90;42.10
57857;DHT22;43683;48.650;9.290;2022-07-06T10:51:41;26.50;42.90
57857;DHT22;43683;48.650;9.290;2022-07-06T10:54:09;26.40;43.70
57857;DHT22;43683;48.650;9.290;2022-07-06T10:56:47;26.40;42.60
57857;DHT22;43683;48.650;9.290;2022-07-06T10:59:23;26.80;41.90
57857;DHT22;43683;48.650;9.290;2022-07-06T11:04:36;27.40;41.00
57857;DHT22;43683;48.650;9.290;2022-07-06T11:07:15;27.60;41.00
57857;DHT22;43683;48.650;9.290;2022-07-06T11:09:42;26.80;41.50
57857;DHT22;43683;48.650;9.290;2022-07-06T11:12:17;25.90;42.40
57857;DHT22;43683;48.650;9.290;2022-07-06T11:14:47;26.10;42.10
57857;DHT22;43683;48.650;9.290;2022-07-06T11:17:14;26.60;42.10
57857;DHT22;43683;48.650;9.290;2022-07-06T11:19:58;26.80;41.40
57857;DHT22;43683;48.650;9.290;2022-07-06T11:22:24;27.00;41.10
57857;DHT22;43683;48.650;9.290;2022-07-06T11:24:51;27.20;41.00
57857;DHT22;43683;48.650;9.290;2022-07-06T11:27:17;27.40;40.80
57857;DHT22;43683;48.650;9.290;2022-07-06T11:29:43;27.50;40.80
57857;DHT22;43683;48.650;9.290;2022-07-06T11:32:11;27.30;40.80
57857;DHT22;43683;48.650;9.290;2022-07-06T11:34:38;27.00;41.00
57857;DHT22;43683;48.650;9.290;2022-07-06T11:37:06;27.10;41.20
57857;DHT22;43683;48.650;9.290;2022-07-06T11:39:37;27.20;41.00
57857;DHT22;43683;48.650;9.290;2022-07-06T11:42:06;27.40;40.60
57857;DHT22;43683;48.650;9.290;2022-07-06T11:44:34;27.40;40.50
57857;DHT22;43683;48.650;9.290;2022-07-06T11:47:00;27.60;40.10
57857;DHT22;43683;48.650;9.290;2022-07-06T11:49:28;28.00;39.40
57857;DHT22;43683;48.650;9.290;2022-07-06T11:51:53;28.30;39.60
57857;DHT22;43683;48.650;9.290;2022-07-06T11:54:21;28.30;39.70
57857;DHT22;43683;48.650;9.290;2022-07-06T11:56:56;28.20;40.00
57857;DHT22;43683;48.650;9.290;2022-07-06T12:02:04;28.40;39.60
57857;DHT22;43683;48.650;9.290;2022-07-06T12:04:32;28.50;39.20
57857;DHT22;43683;48.650;9.290;2022-07-06T12:07:06;28.70;39.60
57857;DHT22;43683;48.650;9.290;2022-07-06T12:09:35;28.60;39.30
57857;DHT22;43683;48.650;9.290;2022-07-06T12:12:01;28.40;39.60
57857;DHT22;43683;48.650;9.290;2022-07-06T12:14:29;28.20;39.80
57857;DHT22;43683;48.650;9.290;2022-07-06T12:16:54;27.70;40.20
57857;DHT22;43683;48.650;9.290;2022-07-06T12:19:23;27.20;40.90
57857;DHT22;43683;48.650;9.290;2022-07-06T12:21:51;26.60;41.20
57857;DHT22;43683;48.650;9.290;2022-07-06T12:24:21;26.70;41.20
57857;DHT22;43683;48.650;9.290;2022-07-06T12:26:47;27.40;40.40
57857;DHT22;43683;48.650;9.290;2022-07-06T12:29:14;27.50;40.30
57857;DHT22;43683;48.650;9.290;2022-07-06T12:31:40;27.30;40.70
57857;DHT22;43683;48.650;9.290;2022-07-06T12:34:12;27.00;40.90
57857;DHT22;43683;48.650;9.290;2022-07-06T12:36:55;26.40;41.70
57857;DHT22;43683;48.650;9.290;2022-07-06T12:39:23;26.00;41.80
57857;DHT22;43683;48.650;9.290;2022-07-06T12:42:02;25.60;42.20
57857;DHT22;43683;48.650;9.290;2022-07-06T12:44:30;25.40;42.70
57857;DHT22;43683;48.650;9.290;2022-07-06T12:47:03;26.00;42.20
57857;DHT22;43683;48.650;9.290;2022-07-06T12:49:29;26.60;41.10
57857;DHT22;43683;48.650;9.290;2022-07-06T12:52:00;26.80;41.10
57857;DHT22;43683;48.650;9.290;2022-07-06T12:54:34;26.70;41.00
57857;DHT22;43683;48.650;9.290;2022-07-06T12:59:29;26.20;41.50
57857;DHT22;43683;48.650;9.290;2022-07-06T13:01:56;25.90;41.90
57857;DHT22;43683;48.650;9.290;2022-07-06T13:04:23;26.00;41.80
57857;DHT22;43683;48.650;9.290;2022-07-06T13:06:49;26.20;41.60
57857;DHT22;43683;48.650;9.290;2022-07-06T13:09:15;26.50;41.30
57857;DHT22;43683;48.650;9.290;2022-07-06T13:11:42;26.50;41.20
57857;DHT22;43683;48.650;9.290;2022-07-06T13:14:07;26.50;41.20
57857;DHT22;43683;48.650;9.290;2022-07-06T13:16:36;26.60;41.20
57857;DHT22;43683;48.650;9.290;2022-07-06T13:19:02;26.80;41.00
57857;DHT22;43683;48.650;9.290;2022-07-06T13:21:28;26.90;41.00
57857;DHT22;43683;48.650;9.290;2022-07-06T13:23:53;27.10;40.90
57857;DHT22;43683;48.650;9.290;2022-07-06T13:26:19;27.40;40.70
57857;DHT22;43683;48.650;9.290;2022-07-06T13:28:45;27.80;40.20
57857;DHT22;43683;48.650;9.290;2022-07-06T13:31:10;28.20;39.80
57857;DHT22;43683;48.650;9.290;2022-07-06T13:33:36;28.70;39.40
57857;DHT22;43683;48.650;9.290;2022-07-06T13:36:02;29.30;39.30
57857;DHT22;43683;48.650;9.290;2022-07-06T13:38:28;29.30;39.30
57857;DHT22;43683;48.650;9.290;2022-07-06T13:40:53;29.20;39.40
57857;DHT22;43683;48.650;9.290;2022-07-06T13:43:19;28.80;40.00
57857;DHT22;43683;48.650;9.290;2022-07-06T13:45:46;28.80;40.00
57857;DHT22;43683;48.650;9.290;2022-07-06T13:48:12;28.70;39.80
57857;DHT22;43683;48.650;9.290;2022-07-06T13:50:37;28.70;39.70
57857;DHT22;43683;48.650;9.290;2022-07-06T13:53:03;28.50;39.90
57857;DHT22;43683;48.650;9.290;2022-07-06T13:55:30;28.30;39.90
57857;DHT22;43683;48.650;9.290;2022-07-06T13:57:55;28.30;40.00
57857;DHT22;43683;48.650;9.290;2022-07-06T14:00:21;28.20;40.00
57857;DHT22;43683;48.650;9.290;2022-07-06T14:02:47;28.20;40.00
57857;DHT22;43683;48.650;9.290;2022-07-06T14:05:13;28.30;39.70
57857;DHT22;43683;48.650;9.290;2022-07-06T14:07:38;28.40;39.60
57857;DHT22;43683;48.650;9.290;2022-07-06T14:10:04;28.50;39.20
57857;DHT22;43683;48.650;9.290;2022-07-06T14:12:30;28.60;39.20
57857;DHT22;43683;48.650;9.290;2022-07-06T14:14:55;28.10;39.30
57857;DHT22;43683;48.650;9.290;2022-07-06T14:17:21;27.20;39.60
57857;DHT22;43683;48.650;9.290;2022-07-06T14:19:49;26.20;40.70
57857;DHT22;43683;48.650;9.290;2022-07-06T14:22:14;26.00;41.00
57857;DHT22;43683;48.650;9.290;2022-07-06T14:24:40;26.70;40.50
57857;DHT22;43683;48.650;9.290;2022-07-06T14:27:06;27.10;39.90
57857;DHT22;43683;48.650;9.290;2022-07-06T14:29:32;27.20;39.70
57857;DHT22;43683;48.650;9.290;2022-07-06T14:31:57;27.40;39.50
57857;DHT22;43683;48.650;9.290;2022-07-06T14:34:23;27.80;39.30
57857;DHT22;43683;48.650;9.290;2022-07-06T14:36:50;28.20;38.80
57857;DHT22;43683;48.650;9.290;2022-07-06T14:39:15;28.20;38.80
57857;DHT22;43683;48.650;9.290;2022-07-06T14:41:41;28.10;38.90
57857;DHT22;43683;48.650;9.290;2022-07-06T14:44:06;27.80;39.00
57857;DHT22;43683;48.650;9.290;2022-07-06T14:46:32;28.10;39.10
57857;DHT22;43683;48.650;9.290;2022-07-06T14:49:00;28.60;38.80
57857;DHT22;43683;48.650;9.290;2022-07-06T14:51:25;28.70;38.30
57857;DHT22;43683;48.650;9.290;2022-07-06T14:53:51;28.10;38.00
57857;DHT22;43683;48.650;9.290;2022-07-06T14:56:17;27.50;38.80
57857;DHT22;43683;48.650;9.290;2022-07-06T14:58:42;27.20;39.00
57857;DHT22;43683;48.650;9.290;2022-07-06T15:01:08;26.70;39.40
57857;DHT22;43683;48.650;9.290;2022-07-06T15:03:33;27.10;39.40
57857;DHT22;43683;48.650;9.290;2022-07-06T15:05:59;27.70;38.90
57857;DHT22;43683;48.650;9.290;2022-07-06T15:08:25;28.10;38.50
57857;DHT22;43683;48.650;9.290;2022-07-06T15:10:50;28.10;38.10
57857;DHT22;43683;48.650;9.290;2022-07-06T15:13:16;28.00;38.30
57857;DHT22;43683;48.650;9.290;2022-07-06T15:15:41;28.10;38.10
57857;DHT22;43683;48.650;9.290;2022-07-06T15:18:07;28.50;38.10
57857;DHT22;43683;48.650;9.290;2022-07-06T15:20:32;28.70;37.80
57857;DHT22;43683;48.650;9.290;2022-07-06T15:22:58;28.80;37.60
57857;DHT22;43683;48.650;9.290;2022-07-06T15:25:24;28.70;37.60
57857;DHT22;43683;48.650;9.290;2022-07-06T15:27:50;28.20;37.80
57857;DHT22;43683;48.650;9.290;2022-07-06T15:30:16;28.00;37.70
57857;DHT22;43683;48.650;9.290;2022-07-06T15:32:42;27.10;38.00
57857;DHT22;43683;48.650;9.290;2022-07-06T15:35:08;26.10;38.90